sensor_id;sensor_type;location;lat;lon;timestamp;P1;durP1;ratioP1;P2;durP2;ratioP2
45762;SDS011;37512;52.408;13.356;2023-06-10T00:03:51;8.23;;;4.30;;
45762;SDS011;37512;52.408;13.356;2023-06-10T00:07:53;10.35;;;4.13;;
45762;SDS011;37512;52.408;13.356;2023-06-10T00:11:56;7.63;;;4.22;;
45762;SDS011;37512;52.408;13.356;2023-06-10T00:16:01;10.27;;;4.68;;
45762;SDS011;37512;52.408;13.356;2023-06-10T00:20:02;9.00;;;4.80;;
45762;SDS011;37512;52.408;13.356;2023-06-10T00:24:10;9.73;;;4.70;;
45762;SDS011;37512;52.408;13.356;2023-06-10T00:28:13;10.77;;;4.95;;
45762;SDS011;37512;52.408;13.356;2023-06-10T00:32:15;12.43;;;4.45;;
45762;SDS011;37512;52.408;13.356;2023-06-10T00:36:16;6.95;;;4.20;;
45762;SDS011;37512;52.408;13.356;2023-06-10T00:40:18;9.40;;;4.43;;
45762;SDS011;37512;52.408;13.356;2023-06-10T00:44:19;9.80;;;4.18;;
45762;SDS011;37512;52.408;13.356;2023-06-10T00:48:21;9.63;;;3.70;;
45762;SDS011;37512;52.408;13.356;2023-06-10T00:52:24;14.93;;;4.43;;
45762;SDS011;37512;52.408;13.356;2023-06-10T00:56:29;6.50;;;4.28;;
45762;SDS011;37512;52.408;13.356;2023-06-10T01:00:31;13.63;;;4.38;;
45762;SDS011;37512;52.408;13.356;2023-06-10T01:04:33;9.77;;;4.43;;
45762;SDS011;37512;52.408;13.356;2023-06-10T01:08:40;7.15;;;3.80;;
45762;SDS011;37512;52.408;13.356;2023-06-10T01:12:53;8.93;;;4.30;;
45762;SDS011;37512;52.408;13.356;2023-06-10T01:17:08;12.05;;;4.28;;
45762;SDS011;37512;52.408;13.356;2023-06-10T01:21:21;7.13;;;4.13;;
45762;SDS011;37512;52.408;13.356;2023-06-10T01:25:26;8.52;;;4.47;;
45762;SDS011;37512;52.408;13.356;2023-06-10T01:29:50;11.52;;;4.65;;
45762;SDS011;37512;52.408;13.356;2023-06-10T01:33:56;8.23;;;4.05;;
45762;SDS011;37512;52.408;13.356;2023-06-10T01:37:57;6.70;;;4.07;;
45762;SDS011;37512;52.408;13.356;2023-06-10T01:42:01;10.25;;;4.60;;
45762;SDS011;37512;52.408;13.356;2023-06-10T01:46:04;7.55;;;4.07;;
45762;SDS011;37512;52.408;13.356;2023-06-10T01:50:06;10.68;;;4.43;;
45762;SDS011;37512;52.408;13.356;2023-06-10T01:54:08;8.32;;;4.45;;
45762;SDS011;37512;52.408;13.356;2023-06-10T01:58:10;9.65;;;4.97;;
45762;SDS011;37512;52.408;13.356;2023-06-10T02:02:12;11.55;;;4.35;;
45762;SDS011;37512;52.408;13.356;2023-06-10T02:06:14;10.40;;;4.40;;
45762;SDS011;37512;52.408;13.356;2023-06-10T02:10:15;7.40;;;4.57;;
45762;SDS011;37512;52.408;13.356;2023-06-10T02:14:17;8.90;;;4.50;;
45762;SDS011;37512;52.408;13.356;2023-06-10T02:18:19;9.23;;;4.25;;
45762;SDS011;37512;52.408;13.356;2023-06-10T02:22:22;10.43;;;4.78;;
45762;SDS011;37512;52.408;13.356;2023-06-10T02:26:25;10.68;;;4.20;;
45762;SDS011;37512;52.408;13.356;2023-06-10T02:30:27;11.75;;;5.00;;
45762;SDS011;37512;52.408;13.356;2023-06-10T02:34:30;7.43;;;4.03;;
45762;SDS011;37512;52.408;13.356;2023-06-10T02:38:32;12.68;;;4.20;;
45762;SDS011;37512;52.408;13.356;2023-06-10T02:42:34;12.48;;;4.22;;
45762;SDS011;37512;52.408;13.356;2023-06-10T02:46:35;9.35;;;4.13;;
45762;SDS011;37512;52.408;13.356;2023-06-10T02:50:37;9.35;;;4.28;;
45762;SDS011;37512;52.408;13.356;2023-06-10T02:54:41;9.48;;;4.22;;
45762;SDS011;37512;52.408;13.356;2023-06-10T02:58:42;12.98;;;5.03;;
45762;SDS011;37512;52.408;13.356;2023-06-10T03:02:44;11.70;;;5.05;;
45762;SDS011;37512;52.408;13.356;2023-06-10T03:06:47;6.88;;;4.43;;
45762;SDS011;37512;52.408;13.356;2023-06-10T03:10:49;11.38;;;4.15;;
45762;SDS011;37512;52.408;13.356;2023-06-10T03:14:50;7.15;;;4.03;;
45762;SDS011;37512;52.408;13.356;2023-06-10T03:18:52;11.32;;;4.15;;
45762;SDS011;37512;52.408;13.356;2023-06-10T03:22:53;10.52;;;4.13;;
45762;SDS011;37512;52.408;13.356;2023-06-10T03:26:55;11.55;;;4.80;;
45762;SDS011;37512;52.408;13.356;2023-06-10T03:30:57;9.57;;;4.35;;
45762;SDS011;37512;52.408;13.356;2023-06-10T03:34:59;18.05;;;4.45;;
45762;SDS011;37512;52.408;13.356;2023-06-10T03:39:01;10.98;;;4.57;;
45762;SDS011;37512;52.408;13.356;2023-06-10T03:43:02;13.23;;;5.00;;
45762;SDS011;37512;52.408;13.356;2023-06-10T03:47:04;9.57;;;4.97;;
45762;SDS011;37512;52.408;13.356;2023-06-10T03:51:06;7.90;;;4.72;;
45762;SDS011;37512;52.408;13.356;2023-06-10T03:55:07;8.93;;;4.47;;
45762;SDS011;37512;52.408;13.356;2023-06-10T03:59:09;11.02;;;5.35;;
45762;SDS011;37512;52.408;13.356;2023-06-10T04:03:11;10.00;;;4.93;;
45762;SDS011;37512;52.408;13.356;2023-06-10T04:07:17;17.23;;;5.57;;
45762;SDS011;37512;52.408;13.356;2023-06-10T04:11:20;10.43;;;4.82;;
45762;SDS011;37512;52.408;13.356;2023-06-10T04:15:21;9.15;;;4.85;;
45762;SDS011;37512;52.408;13.356;2023-06-10T04:19:23;15.50;;;5.65;;
45762;SDS011;37512;52.408;13.356;2023-06-10T04:23:25;11.60;;;4.60;;
45762;SDS011;37512;52.408;13.356;2023-06-10T04:27:27;9.07;;;4.78;;
45762;SDS011;37512;52.408;13.356;2023-06-10T04:31:29;12.05;;;4.85;;
45762;SDS011;37512;52.408;13.356;2023-06-10T04:35:30;18.33;;;5.68;;
45762;SDS011;37512;52.408;13.356;2023-06-10T04:39:32;10.20;;;4.88;;
45762;SDS011;37512;52.408;13.356;2023-06-10T04:43:37;11.88;;;5.45;;
45762;SDS011;37512;52.408;13.356;2023-06-10T04:47:40;12.02;;;6.15;;
45762;SDS011;37512;52.408;13.356;2023-06-10T04:51:41;9.07;;;4.78;;
45762;SDS011;37512;52.408;13.356;2023-06-10T04:55:43;10.65;;;5.93;;
45762;SDS011;37512;52.408;13.356;2023-06-10T04:59:45;13.02;;;5.05;;
45762;SDS011;37512;52.408;13.356;2023-06-10T05:03:47;12.05;;;5.25;;
45762;SDS011;37512;52.408;13.356;2023-06-10T05:07:48;7.95;;;5.30;;
45762;SDS011;37512;52.408;13.356;2023-06-10T05:11:50;8.90;;;4.78;;
45762;SDS011;37512;52.408;13.356;2023-06-10T05:15:51;10.35;;;5.20;;
45762;SDS011;37512;52.408;13.356;2023-06-10T05:19:53;10.77;;;5.88;;
45762;SDS011;37512;52.408;13.356;2023-06-10T05:23:54;10.23;;;6.03;;
45762;SDS011;37512;52.408;13.356;2023-06-10T05:27:56;12.45;;;5.53;;
45762;SDS011;37512;52.408;13.356;2023-06-10T05:31:57;11.65;;;5.68;;
45762;SDS011;37512;52.408;13.356;2023-06-10T05:36:04;11.82;;;6.05;;
45762;SDS011;37512;52.408;13.356;2023-06-10T05:40:06;15.18;;;5.85;;
45762;SDS011;37512;52.408;13.356;2023-06-10T05:44:08;9.95;;;5.75;;
45762;SDS011;37512;52.408;13.356;2023-06-10T05:48:14;14.43;;;6.13;;
45762;SDS011;37512;52.408;13.356;2023-06-10T05:52:15;8.50;;;5.93;;
45762;SDS011;37512;52.408;13.356;2023-06-10T05:56:17;7.35;;;5.07;;
45762;SDS011;37512;52.408;13.356;2023-06-10T06:00:18;9.68;;;5.18;;
45762;SDS011;37512;52.408;13.356;2023-06-10T06:04:20;11.73;;;5.75;;
45762;SDS011;37512;52.408;13.356;2023-06-10T06:08:22;14.43;;;5.40;;
45762;SDS011;37512;52.408;13.356;2023-06-10T06:12:23;11.35;;;5.85;;
45762;SDS011;37512;52.408;13.356;2023-06-10T06:16:25;9.13;;;5.03;;
45762;SDS011;37512;52.408;13.356;2023-06-10T06:20:26;8.50;;;5.93;;
45762;SDS011;37512;52.408;13.356;2023-06-10T06:24:28;14.52;;;5.35;;
45762;SDS011;37512;52.408;13.356;2023-06-10T06:28:30;12.25;;;5.82;;
45762;SDS011;37512;52.408;13.356;2023-06-10T06:32:34;9.27;;;5.25;;
45762;SDS011;37512;52.408;13.356;2023-06-10T06:36:36;9.63;;;5.35;;
45762;SDS011;37512;52.408;13.356;2023-06-10T06:40:37;9.07;;;5.50;;
45762;SDS011;37512;52.408;13.356;2023-06-10T06:44:39;8.30;;;5.63;;
45762;SDS011;37512;52.408;13.356;2023-06-10T06:48:40;10.60;;;5.88;;
45762;SDS011;37512;52.408;13.356;2023-06-10T06:52:42;7.13;;;5.35;;
45762;SDS011;37512;52.408;13.356;2023-06-10T06:56:43;10.48;;;5.60;;
45762;SDS011;37512;52.408;13.356;2023-06-10T07:00:45;11.05;;;5.70;;
45762;SDS011;37512;52.408;13.356;2023-06-10T07:04:47;9.73;;;5.95;;
45762;SDS011;37512;52.408;13.356;2023-06-10T07:08:50;14.13;;;6.35;;
45762;SDS011;37512;52.408;13.356;2023-06-10T07:12:52;9.10;;;6.03;;
45762;SDS011;37512;52.408;13.356;2023-06-10T07:16:54;8.75;;;5.93;;
45762;SDS011;37512;52.408;13.356;2023-06-10T07:20:56;9.55;;;6.07;;
45762;SDS011;37512;52.408;13.356;2023-06-10T07:24:58;9.90;;;6.15;;
45762;SDS011;37512;52.408;13.356;2023-06-10T07:28:59;13.10;;;6.10;;
45762;SDS011;37512;52.408;13.356;2023-06-10T07:33:01;10.77;;;6.28;;
45762;SDS011;37512;52.408;13.356;2023-06-10T07:37:04;8.43;;;5.80;;
45762;SDS011;37512;52.408;13.356;2023-06-10T07:41:06;11.63;;;5.97;;
45762;SDS011;37512;52.408;13.356;2023-06-10T07:45:08;9.90;;;5.90;;
45762;SDS011;37512;52.408;13.356;2023-06-10T07:49:10;9.40;;;5.80;;
45762;SDS011;37512;52.408;13.356;2023-06-10T07:53:12;11.82;;;5.90;;
45762;SDS011;37512;52.408;13.356;2023-06-10T07:57:16;6.95;;;5.88;;
45762;SDS011;37512;52.408;13.356;2023-06-10T08:01:18;10.30;;;6.75;;
45762;SDS011;37512;52.408;13.356;2023-06-10T08:05:19;10.85;;;6.47;;
45762;SDS011;37512;52.408;13.356;2023-06-10T08:09:22;8.93;;;5.63;;
45762;SDS011;37512;52.408;13.356;2023-06-10T08:13:24;9.68;;;5.82;;
45762;SDS011;37512;52.408;13.356;2023-06-10T08:17:26;11.07;;;6.43;;
45762;SDS011;37512;52.408;13.356;2023-06-10T08:21:28;8.07;;;6.63;;
45762;SDS011;37512;52.408;13.356;2023-06-10T08:25:30;10.68;;;6.53;;
45762;SDS011;37512;52.408;13.356;2023-06-10T08:29:32;8.00;;;5.75;;
45762;SDS011;37512;52.408;13.356;2023-06-10T08:33:34;10.93;;;5.97;;
45762;SDS011;37512;52.408;13.356;2023-06-10T08:37:35;10.13;;;6.13;;
45762;SDS011;37512;52.408;13.356;2023-06-10T08:41:40;8.50;;;6.28;;
45762;SDS011;37512;52.408;13.356;2023-06-10T08:45:44;7.35;;;5.53;;
45762;SDS011;37512;52.408;13.356;2023-06-10T08:49:50;16.13;;;6.45;;
45762;SDS011;37512;52.408;13.356;2023-06-10T08:54:01;14.30;;;6.03;;
45762;SDS011;37512;52.408;13.356;2023-06-10T08:58:07;10.85;;;6.25;;
45762;SDS011;37512;52.408;13.356;2023-06-10T09:02:09;7.75;;;6.32;;
45762;SDS011;37512;52.408;13.356;2023-06-10T09:06:11;10.82;;;6.70;;
45762;SDS011;37512;52.408;13.356;2023-06-10T09:10:13;6.32;;;5.15;;
45762;SDS011;37512;52.408;13.356;2023-06-10T09:14:15;11.02;;;5.85;;
45762;SDS011;37512;52.408;13.356;2023-06-10T09:18:17;8.07;;;5.78;;
45762;SDS011;37512;52.408;13.356;2023-06-10T09:22:19;9.88;;;6.65;;
45762;SDS011;37512;52.408;13.356;2023-06-10T09:26:20;10.45;;;5.97;;
45762;SDS011;37512;52.408;13.356;2023-06-10T09:30:30;10.32;;;5.88;;
45762;SDS011;37512;52.408;13.356;2023-06-10T09:34:35;8.07;;;5.53;;
45762;SDS011;37512;52.408;13.356;2023-06-10T09:38:37;9.80;;;6.28;;
45762;SDS011;37512;52.408;13.356;2023-06-10T09:42:39;8.18;;;5.35;;
45762;SDS011;37512;52.408;13.356;2023-06-10T09:46:41;8.95;;;5.68;;
45762;SDS011;37512;52.408;13.356;2023-06-10T09:50:43;9.15;;;5.78;;
45762;SDS011;37512;52.408;13.356;2023-06-10T09:54:45;8.32;;;6.10;;
45762;SDS011;37512;52.408;13.356;2023-06-10T09:58:47;14.73;;;6.15;;
45762;SDS011;37512;52.408;13.356;2023-06-10T10:02:49;8.20;;;5.85;;
45762;SDS011;37512;52.408;13.356;2023-06-10T10:06:53;8.43;;;5.85;;
45762;SDS011;37512;52.408;13.356;2023-06-10T10:10:56;10.95;;;5.78;;
45762;SDS011;37512;52.408;13.356;2023-06-10T10:14:58;8.25;;;5.60;;
45762;SDS011;37512;52.408;13.356;2023-06-10T10:19:01;8.18;;;5.15;;
45762;SDS011;37512;52.408;13.356;2023-06-10T10:23:08;10.25;;;4.65;;
45762;SDS011;37512;52.408;13.356;2023-06-10T10:27:18;8.90;;;5.15;;
45762;SDS011;37512;52.408;13.356;2023-06-10T10:31:29;7.03;;;4.93;;
45762;SDS011;37512;52.408;13.356;2023-06-10T10:35:36;11.40;;;5.63;;
45762;SDS011;37512;52.408;13.356;2023-06-10T10:39:39;10.25;;;5.95;;
45762;SDS011;37512;52.408;13.356;2023-06-10T10:43:41;10.32;;;5.60;;
45762;SDS011;37512;52.408;13.356;2023-06-10T10:47:45;8.95;;;5.57;;
45762;SDS011;37512;52.408;13.356;2023-06-10T10:51:57;10.63;;;6.25;;
45762;SDS011;37512;52.408;13.356;2023-06-10T10:56:07;7.65;;;5.22;;
45762;SDS011;37512;52.408;13.356;2023-06-10T11:00:12;6.15;;;4.75;;
45762;SDS011;37512;52.408;13.356;2023-06-10T11:04:26;6.90;;;5.30;;
45762;SDS011;37512;52.408;13.356;2023-06-10T11:16:46;6.00;;;4.22;;
45762;SDS011;37512;52.408;13.356;2023-06-10T11:24:50;11.02;;;4.60;;
45762;SDS011;37512;52.408;13.356;2023-06-10T11:32:54;6.28;;;4.30;;
45762;SDS011;37512;52.408;13.356;2023-06-10T11:37:00;10.13;;;5.15;;
45762;SDS011;37512;52.408;13.356;2023-06-10T11:41:04;8.80;;;4.68;;
45762;SDS011;37512;52.408;13.356;2023-06-10T11:45:06;8.40;;;4.95;;
45762;SDS011;37512;52.408;13.356;2023-06-10T11:49:10;6.53;;;5.00;;
45762;SDS011;37512;52.408;13.356;2023-06-10T11:53:12;7.93;;;4.82;;
45762;SDS011;37512;52.408;13.356;2023-06-10T11:57:14;5.40;;;4.70;;
45762;SDS011;37512;52.408;13.356;2023-06-10T12:01:19;4.90;;;4.40;;
45762;SDS011;37512;52.408;13.356;2023-06-10T12:05:29;6.00;;;4.63;;
45762;SDS011;37512;52.408;13.356;2023-06-10T12:09:31;6.20;;;4.10;;
45762;SDS011;37512;52.408;13.356;2023-06-10T12:13:34;8.15;;;4.43;;
45762;SDS011;37512;52.408;13.356;2023-06-10T12:17:36;6.78;;;4.65;;
45762;SDS011;37512;52.408;13.356;2023-06-10T12:21:39;6.75;;;4.25;;
45762;SDS011;37512;52.408;13.356;2023-06-10T12:25:50;6.35;;;4.20;;
45762;SDS011;37512;52.408;13.356;2023-06-10T12:29:54;5.13;;;3.55;;
45762;SDS011;37512;52.408;13.356;2023-06-10T12:34:08;6.05;;;3.78;;
45762;SDS011;37512;52.408;13.356;2023-06-10T12:38:10;4.72;;;3.80;;
45762;SDS011;37512;52.408;13.356;2023-06-10T12:42:13;5.47;;;4.10;;
45762;SDS011;37512;52.408;13.356;2023-06-10T12:46:15;5.60;;;4.05;;
45762;SDS011;37512;52.408;13.356;2023-06-10T12:50:17;6.32;;;4.50;;
45762;SDS011;37512;52.408;13.356;2023-06-10T12:54:19;7.68;;;4.72;;
45762;SDS011;37512;52.408;13.356;2023-06-10T12:58:20;7.20;;;4.82;;
45762;SDS011;37512;52.408;13.356;2023-06-10T13:02:23;7.78;;;4.85;;
45762;SDS011;37512;52.408;13.356;2023-06-10T13:06:25;9.35;;;4.60;;
45762;SDS011;37512;52.408;13.356;2023-06-10T13:10:27;6.28;;;4.72;;
45762;SDS011;37512;52.408;13.356;2023-06-10T13:14:29;8.63;;;4.90;;
45762;SDS011;37512;52.408;13.356;2023-06-10T13:18:30;7.80;;;4.93;;
45762;SDS011;37512;52.408;13.356;2023-06-10T13:22:38;7.07;;;5.05;;
45762;SDS011;37512;52.408;13.356;2023-06-10T13:26:39;7.93;;;5.00;;
45762;SDS011;37512;52.408;13.356;2023-06-10T13:30:41;6.00;;;4.90;;
45762;SDS011;37512;52.408;13.356;2023-06-10T13:34:42;6.20;;;4.97;;
45762;SDS011;37512;52.408;13.356;2023-06-10T13:38:44;5.55;;;4.90;;
45762;SDS011;37512;52.408;13.356;2023-06-10T13:42:46;7.43;;;4.90;;
45762;SDS011;37512;52.408;13.356;2023-06-10T13:46:52;7.53;;;5.05;;
45762;SDS011;37512;52.408;13.356;2023-06-10T13:50:53;6.10;;;4.60;;
45762;SDS011;37512;52.408;13.356;2023-06-10T13:54:55;7.55;;;4.72;;
45762;SDS011;37512;52.408;13.356;2023-06-10T13:58:57;5.93;;;4.07;;
45762;SDS011;37512;52.408;13.356;2023-06-10T14:03:01;6.35;;;4.70;;
45762;SDS011;37512;52.408;13.356;2023-06-10T14:07:04;8.50;;;4.72;;
45762;SDS011;37512;52.408;13.356;2023-06-10T14:11:06;6.35;;;5.10;;
45762;SDS011;37512;52.408;13.356;2023-06-10T14:15:08;8.38;;;5.65;;
45762;SDS011;37512;52.408;13.356;2023-06-10T14:19:10;7.95;;;4.97;;
45762;SDS011;37512;52.408;13.356;2023-06-10T14:23:12;12.15;;;5.97;;
45762;SDS011;37512;52.408;13.356;2023-06-10T14:27:14;5.75;;;4.78;;
45762;SDS011;37512;52.408;13.356;2023-06-10T14:31:16;5.47;;;4.25;;
45762;SDS011;37512;52.408;13.356;2023-06-10T14:35:18;6.60;;;4.70;;
45762;SDS011;37512;52.408;13.356;2023-06-10T14:39:19;7.72;;;5.07;;
45762;SDS011;37512;52.408;13.356;2023-06-10T14:43:21;10.77;;;4.80;;
45762;SDS011;37512;52.408;13.356;2023-06-10T14:47:22;7.35;;;4.55;;
45762;SDS011;37512;52.408;13.356;2023-06-10T14:51:24;8.70;;;5.25;;
45762;SDS011;37512;52.408;13.356;2023-06-10T14:55:26;7.90;;;4.60;;
45762;SDS011;37512;52.408;13.356;2023-06-10T14:59:27;8.35;;;4.57;;
45762;SDS011;37512;52.408;13.356;2023-06-10T15:03:29;5.07;;;4.40;;
45762;SDS011;37512;52.408;13.356;2023-06-10T15:07:31;6.72;;;4.05;;
45762;SDS011;37512;52.408;13.356;2023-06-10T15:11:33;8.07;;;4.30;;
45762;SDS011;37512;52.408;13.356;2023-06-10T15:15:34;8.88;;;5.03;;
45762;SDS011;37512;52.408;13.356;2023-06-10T15:19:36;4.78;;;4.10;;
45762;SDS011;37512;52.408;13.356;2023-06-10T15:23:37;5.32;;;4.38;;
45762;SDS011;37512;52.408;13.356;2023-06-10T15:27:39;5.28;;;4.00;;
45762;SDS011;37512;52.408;13.356;2023-06-10T15:31:41;5.05;;;4.38;;
45762;SDS011;37512;52.408;13.356;2023-06-10T15:35:43;4.65;;;4.07;;
45762;SDS011;37512;52.408;13.356;2023-06-10T15:39:44;6.93;;;3.88;;
45762;SDS011;37512;52.408;13.356;2023-06-10T15:43:46;6.68;;;4.00;;
45762;SDS011;37512;52.408;13.356;2023-06-10T15:47:48;6.72;;;3.97;;
45762;SDS011;37512;52.408;13.356;2023-06-10T15:51:49;8.45;;;3.55;;
45762;SDS011;37512;52.408;13.356;2023-06-10T15:55:51;4.50;;;3.90;;
45762;SDS011;37512;52.408;13.356;2023-06-10T15:59:53;5.32;;;3.42;;
45762;SDS011;37512;52.408;13.356;2023-06-10T16:03:55;9.13;;;3.95;;
45762;SDS011;37512;52.408;13.356;2023-06-10T16:07:56;6.28;;;3.50;;
45762;SDS011;37512;52.408;13.356;2023-06-10T16:12:03;8.45;;;3.95;;
45762;SDS011;37512;52.408;13.356;2023-06-10T16:16:04;8.07;;;4.20;;
45762;SDS011;37512;52.408;13.356;2023-06-10T16:20:07;5.88;;;4.38;;
45762;SDS011;37512;52.408;13.356;2023-06-10T16:24:09;5.63;;;4.00;;
45762;SDS011;37512;52.408;13.356;2023-06-10T16:28:12;10.15;;;3.60;;
45762;SDS011;37512;52.408;13.356;2023-06-10T16:32:14;6.07;;;3.47;;
45762;SDS011;37512;52.408;13.356;2023-06-10T16:36:16;8.07;;;4.00;;
45762;SDS011;37512;52.408;13.356;2023-06-10T16:40:17;9.18;;;3.20;;
45762;SDS011;37512;52.408;13.356;2023-06-10T16:44:19;10.15;;;3.22;;
45762;SDS011;37512;52.408;13.356;2023-06-10T16:48:21;9.93;;;3.50;;
45762;SDS011;37512;52.408;13.356;2023-06-10T16:52:22;4.60;;;3.83;;
45762;SDS011;37512;52.408;13.356;2023-06-10T16:56:24;6.03;;;3.65;;
45762;SDS011;37512;52.408;13.356;2023-06-10T17:00:26;5.72;;;3.70;;
45762;SDS011;37512;52.408;13.356;2023-06-10T17:04:27;10.77;;;3.90;;
45762;SDS011;37512;52.408;13.356;2023-06-10T17:08:28;7.15;;;4.55;;
45762;SDS011;37512;52.408;13.356;2023-06-10T17:12:30;7.72;;;3.85;;
45762;SDS011;37512;52.408;13.356;2023-06-10T17:16:32;5.75;;;3.50;;
45762;SDS011;37512;52.408;13.356;2023-06-10T17:20:33;8.32;;;3.70;;
45762;SDS011;37512;52.408;13.356;2023-06-10T17:24:35;6.05;;;3.55;;
45762;SDS011;37512;52.408;13.356;2023-06-10T17:28:37;6.95;;;3.42;;
45762;SDS011;37512;52.408;13.356;2023-06-10T17:32:41;17.45;;;4.55;;
45762;SDS011;37512;52.408;13.356;2023-06-10T17:36:43;5.75;;;4.63;;
45762;SDS011;37512;52.408;13.356;2023-06-10T17:40:46;7.47;;;4.55;;
45762;SDS011;37512;52.408;13.356;2023-06-10T17:44:50;5.45;;;3.50;;
45762;SDS011;37512;52.408;13.356;2023-06-10T17:48:51;8.85;;;3.47;;
45762;SDS011;37512;52.408;13.356;2023-06-10T17:52:53;5.97;;;4.07;;
45762;SDS011;37512;52.408;13.356;2023-06-10T17:56:58;6.57;;;3.70;;
45762;SDS011;37512;52.408;13.356;2023-06-10T18:01:08;5.13;;;3.47;;
45762;SDS011;37512;52.408;13.356;2023-06-10T18:05:12;10.18;;;3.42;;
45762;SDS011;37512;52.408;13.356;2023-06-10T18:09:16;5.22;;;3.60;;
45762;SDS011;37512;52.408;13.356;2023-06-10T18:13:26;5.35;;;4.07;;
45762;SDS011;37512;52.408;13.356;2023-06-10T18:17:30;12.18;;;9.65;;
45762;SDS011;37512;52.408;13.356;2023-06-10T18:21:32;14.40;;;6.70;;
45762;SDS011;37512;52.408;13.356;2023-06-10T18:25:34;25.27;;;11.88;;
45762;SDS011;37512;52.408;13.356;2023-06-10T18:29:35;10.10;;;5.10;;
45762;SDS011;37512;52.408;13.356;2023-06-10T18:33:37;8.10;;;4.85;;
45762;SDS011;37512;52.408;13.356;2023-06-10T18:37:39;11.63;;;6.78;;
45762;SDS011;37512;52.408;13.356;2023-06-10T18:41:40;10.88;;;4.78;;
45762;SDS011;37512;52.408;13.356;2023-06-10T18:45:42;12.75;;;9.63;;
45762;SDS011;37512;52.408;13.356;2023-06-10T18:49:44;13.13;;;9.50;;
45762;SDS011;37512;52.408;13.356;2023-06-10T18:53:46;11.30;;;6.25;;
45762;SDS011;37512;52.408;13.356;2023-06-10T18:57:47;8.77;;;4.72;;
45762;SDS011;37512;52.408;13.356;2023-06-10T19:01:49;8.88;;;5.10;;
45762;SDS011;37512;52.408;13.356;2023-06-10T19:05:51;10.95;;;6.10;;
45762;SDS011;37512;52.408;13.356;2023-06-10T19:09:53;9.18;;;6.97;;
45762;SDS011;37512;52.408;13.356;2023-06-10T19:13:55;6.78;;;5.15;;
45762;SDS011;37512;52.408;13.356;2023-06-10T19:17:56;7.10;;;5.47;;
45762;SDS011;37512;52.408;13.356;2023-06-10T19:21:58;7.53;;;5.43;;
45762;SDS011;37512;52.408;13.356;2023-06-10T19:26:00;9.38;;;5.03;;
45762;SDS011;37512;52.408;13.356;2023-06-10T19:30:02;8.43;;;5.35;;
45762;SDS011;37512;52.408;13.356;2023-06-10T19:34:05;8.80;;;5.72;;
45762;SDS011;37512;52.408;13.356;2023-06-10T19:38:06;11.45;;;5.38;;
45762;SDS011;37512;52.408;13.356;2023-06-10T19:42:08;9.23;;;5.28;;
45762;SDS011;37512;52.408;13.356;2023-06-10T19:46:13;7.18;;;4.47;;
45762;SDS011;37512;52.408;13.356;2023-06-10T19:50:19;15.40;;;4.93;;
45762;SDS011;37512;52.408;13.356;2023-06-10T19:54:21;11.27;;;6.05;;
45762;SDS011;37512;52.408;13.356;2023-06-10T19:58:23;7.85;;;5.57;;
45762;SDS011;37512;52.408;13.356;2023-06-10T20:02:24;12.18;;;5.85;;
45762;SDS011;37512;52.408;13.356;2023-06-10T20:06:26;5.57;;;4.65;;
45762;SDS011;37512;52.408;13.356;2023-06-10T20:10:28;11.93;;;4.95;;
45762;SDS011;37512;52.408;13.356;2023-06-10T20:14:33;8.52;;;5.07;;
45762;SDS011;37512;52.408;13.356;2023-06-10T20:18:35;8.80;;;4.32;;
45762;SDS011;37512;52.408;13.356;2023-06-10T20:22:37;11.48;;;4.60;;
45762;SDS011;37512;52.408;13.356;2023-06-10T20:26:39;9.25;;;4.97;;
45762;SDS011;37512;52.408;13.356;2023-06-10T20:30:41;7.93;;;5.22;;
45762;SDS011;37512;52.408;13.356;2023-06-10T20:34:42;9.82;;;5.00;;
45762;SDS011;37512;52.408;13.356;2023-06-10T20:38:47;13.20;;;9.50;;
45762;SDS011;37512;52.408;13.356;2023-06-10T20:42:49;15.13;;;10.38;;
45762;SDS011;37512;52.408;13.356;2023-06-10T20:46:50;6.88;;;4.93;;
45762;SDS011;37512;52.408;13.356;2023-06-10T20:50:52;7.72;;;5.22;;
45762;SDS011;37512;52.408;13.356;2023-06-10T20:54:54;7.15;;;4.93;;
45762;SDS011;37512;52.408;13.356;2023-06-10T20:58:56;8.70;;;5.85;;
45762;SDS011;37512;52.408;13.356;2023-06-10T21:02:58;5.95;;;4.78;;
45762;SDS011;37512;52.408;13.356;2023-06-10T21:07:00;12.73;;;5.63;;
45762;SDS011;37512;52.408;13.356;2023-06-10T21:11:02;6.43;;;4.60;;
45762;SDS011;37512;52.408;13.356;2023-06-10T21:15:04;8.80;;;4.07;;
45762;SDS011;37512;52.408;13.356;2023-06-10T21:19:06;10.23;;;5.32;;
45762;SDS011;37512;52.408;13.356;2023-06-10T21:23:08;6.80;;;4.55;;
45762;SDS011;37512;52.408;13.356;2023-06-10T21:27:09;5.65;;;4.30;;
45762;SDS011;37512;52.408;13.356;2023-06-10T21:31:12;4.95;;;3.88;;
45762;SDS011;37512;52.408;13.356;2023-06-10T21:35:14;6.82;;;4.13;;
45762;SDS011;37512;52.408;13.356;2023-06-10T21:39:15;6.47;;;3.80;;
45762;SDS011;37512;52.408;13.356;2023-06-10T21:43:17;8.07;;;4.20;;
45762;SDS011;37512;52.408;13.356;2023-06-10T21:47:19;7.95;;;3.95;;
45762;SDS011;37512;52.408;13.356;2023-06-10T21:51:20;6.25;;;3.80;;
45762;SDS011;37512;52.408;13.356;2023-06-10T21:55:22;6.90;;;4.03;;
45762;SDS011;37512;52.408;13.356;2023-06-10T21:59:23;6.00;;;3.92;;
45762;SDS011;37512;52.408;13.356;2023-06-10T22:03:25;5.97;;;3.67;;
45762;SDS011;37512;52.408;13.356;2023-06-10T22:07:27;5.50;;;3.28;;
45762;SDS011;37512;52.408;13.356;2023-06-10T22:11:30;4.93;;;3.47;;
45762;SDS011;37512;52.408;13.356;2023-06-10T22:15:31;6.03;;;3.40;;
45762;SDS011;37512;52.408;13.356;2023-06-10T22:19:33;7.47;;;3.70;;
45762;SDS011;37512;52.408;13.356;2023-06-10T22:23:39;6.07;;;3.30;;
45762;SDS011;37512;52.408;13.356;2023-06-10T22:27:41;4.80;;;2.97;;
45762;SDS011;37512;52.408;13.356;2023-06-10T22:31:42;7.80;;;3.40;;
45762;SDS011;37512;52.408;13.356;2023-06-10T22:35:44;5.72;;;3.05;;
45762;SDS011;37512;52.408;13.356;2023-06-10T22:39:45;7.75;;;3.58;;
45762;SDS011;37512;52.408;13.356;2023-06-10T22:43:47;8.63;;;3.72;;
45762;SDS011;37512;52.408;13.356;2023-06-10T22:47:48;5.50;;;4.28;;
45762;SDS011;37512;52.408;13.356;2023-06-10T22:51:51;6.97;;;4.55;;
45762;SDS011;37512;52.408;13.356;2023-06-10T22:55:55;8.35;;;4.03;;
45762;SDS011;37512;52.408;13.356;2023-06-10T22:59:57;5.90;;;4.35;;
45762;SDS011;37512;52.408;13.356;2023-06-10T23:03:59;5.88;;;4.28;;
45762;SDS011;37512;52.408;13.356;2023-06-10T23:08:02;6.63;;;4.30;;
45762;SDS011;37512;52.408;13.356;2023-06-10T23:12:04;9.57;;;3.95;;
45762;SDS011;37512;52.408;13.356;2023-06-10T23:16:06;10.35;;;4.25;;
45762;SDS011;37512;52.408;13.356;2023-06-10T23:20:08;7.32;;;3.40;;
45762;SDS011;37512;52.408;13.356;2023-06-10T23:24:12;6.65;;;3.50;;
45762;SDS011;37512;52.408;13.356;2023-06-10T23:28:17;5.50;;;3.50;;
45762;SDS011;37512;52.408;13.356;2023-06-10T23:32:19;6.00;;;3.17;;
45762;SDS011;37512;52.408;13.356;2023-06-10T23:36:21;5.90;;;3.63;;
45762;SDS011;37512;52.408;13.356;2023-06-10T23:40:23;5.32;;;3.08;;
45762;SDS011;37512;52.408;13.356;2023-06-10T23:44:25;8.25;;;3.83;;
45762;SDS011;37512;52.408;13.356;2023-06-10T23:48:27;7.22;;;3.58;;
45762;SDS011;37512;52.408;13.356;2023-06-10T23:52:28;6.63;;;3.03;;
45762;SDS011;37512;52.408;13.356;2023-06-10T23:56:30;6.82;;;2.92;;
